Time;durP1;ratioP1;P1;durP2;ratioP2;P2;SDS_P1;SDS_P2;PMS_P1;PMS_P2;Temp;Humidity;BMP_temperature;BMP_pressure;BME280_temperature;BME280_humidity;BME280_pressure;Samples;Min_cycle;Max_cycle;Signal;HPM_P1;HPM_P2
2021/04/15 00:00:32;;;;;;;0.10;0.10;;;1.80;99.90;;;;;;4969076;28;20255;-68
2021/04/15 00:03:11;;;;;;;0.10;0.10;;;1.80;99.90;;;;;;4966928;29;20172;-68
2021/04/15 00:05:38;;;;;;;0.10;0.10;;;1.80;99.90;;;;;;4969259;28;20164;-68
2021/04/15 00:08:07;;;;;;;1.17;1.08;;;1.70;99.90;;;;;;4967430;29;20227;-68
2021/04/15 00:10:36;;;;;;;0.15;0.15;;;1.70;99.90;;;;;;4968823;28;20204;-68
2021/04/15 00:13:05;;;;;;;0.17;0.17;;;1.50;99.90;;;;;;4968650;28;20171;-67
2021/04/15 00:15:32;;;;;;;0.10;0.10;;;1.30;99.90;;;;;;4968719;28;20279;-68
2021/04/15 00:17:58;;;;;;;0.10;0.10;;;1.30;99.90;;;;;;4968442;28;20195;-68
2021/04/15 00:20:24;;;;;;;0.20;0.20;;;1.30;99.90;;;;;;4966882;29;20264;-67
2021/04/15 00:22:50;;;;;;;0.10;0.10;;;1.30;99.90;;;;;;4969194;28;20164;-67
2021/04/15 00:25:16;;;;;;;0.20;0.20;;;1.30;99.90;;;;;;4967332;29;20599;-67
2021/04/15 00:27:42;;;;;;;0.10;0.10;;;1.40;99.90;;;;;;4968773;28;20250;-67
2021/04/15 00:30:11;;;;;;;0.15;0.15;;;1.30;99.90;;;;;;4967203;29;20219;-67
2021/04/15 00:32:37;;;;;;;0.10;0.10;;;1.20;99.90;;;;;;4968822;28;20168;-67
2021/04/15 00:35:04;;;;;;;0.20;0.20;;;1.10;99.90;;;;;;4969085;28;20267;-68
2021/04/15 00:37:29;;;;;;;0.10;0.10;;;1.10;99.90;;;;;;4968430;28;20222;-68
2021/04/15 00:39:55;;;;;;;1.90;0.68;;;1.00;99.90;;;;;;4968275;28;20172;-68
2021/04/15 00:42:22;;;;;;;0.10;0.10;;;1.10;99.90;;;;;;4967055;29;20259;-68
2021/04/15 00:44:49;;;;;;;0.22;0.22;;;1.10;99.90;;;;;;4969062;28;20168;-68
2021/04/15 00:47:26;;;;;;;0.10;0.10;;;1.00;99.90;;;;;;4968935;28;20226;-68
2021/04/15 00:49:56;;;;;;;0.10;0.10;;;1.00;99.90;;;;;;4968426;28;20680;-67
2021/04/15 00:52:25;;;;;;;0.17;0.17;;;0.80;99.90;;;;;;4967420;28;20532;-67
2021/04/15 00:55:14;;;;;;;0.10;0.10;;;0.70;99.90;;;;;;4966780;29;20248;-67
2021/04/15 00:57:41;;;;;;;0.20;0.20;;;0.70;99.90;;;;;;4967887;28;20192;-67
2021/04/15 01:00:10;;;;;;;0.20;0.20;;;0.60;99.90;;;;;;4967961;28;20191;-67
2021/04/15 01:02:37;;;;;;;0.20;0.20;;;0.60;99.90;;;;;;4967619;28;20211;-67
2021/04/15 01:05:35;;;;;;;0.20;0.20;;;0.60;99.90;;;;;;4967715;28;20283;-67
2021/04/15 01:08:03;;;;;;;0.70;0.70;;;0.50;99.90;;;;;;4946070;29;20231;-67
2021/04/15 01:10:34;;;;;;;0.45;0.43;;;0.40;99.90;;;;;;4946249;29;20216;-67
2021/04/15 01:12:59;;;;;;;0.20;0.20;;;0.30;99.90;;;;;;4946400;29;20330;-67
2021/04/15 01:15:36;;;;;;;0.10;0.10;;;0.20;99.90;;;;;;4946120;29;20169;-67
2021/04/15 01:18:07;;;;;;;0.20;0.20;;;0.10;99.90;;;;;;4945972;29;20208;-67
2021/04/15 01:21:09;;;;;;;0.10;0.10;;;-0.10;99.90;;;;;;4945718;29;20234;-68
2021/04/15 01:24:23;;;;;;;0.10;0.10;;;-0.20;99.90;;;;;;4945893;29;20247;-67
2021/04/15 01:27:22;;;;;;;0.20;0.20;;;-0.30;99.90;;;;;;4929474;29;20192;-67
2021/04/15 01:30:00;;;;;;;0.20;0.20;;;-0.20;99.90;;;;;;4921139;29;20224;-67
2021/04/15 01:32:52;;;;;;;0.32;0.32;;;-0.40;99.90;;;;;;4945817;29;20165;-67
2021/04/15 01:35:29;;;;;;;0.20;0.20;;;-0.50;99.90;;;;;;4945754;29;20179;-67
2021/04/15 01:38:05;;;;;;;0.30;0.30;;;-0.50;99.90;;;;;;4945597;29;20212;-67
2021/04/15 01:40:55;;;;;;;0.10;0.10;;;-0.50;99.90;;;;;;4945873;29;20175;-67
2021/04/15 01:43:42;;;;;;;0.20;0.20;;;-0.40;99.90;;;;;;4957592;28;20299;-67
2021/04/15 01:46:09;;;;;;;0.17;0.17;;;-0.30;99.90;;;;;;4986732;28;20152;-67
2021/04/15 01:48:45;;;;;;;0.10;0.10;;;-0.40;99.90;;;;;;4986391;28;20206;-67
2021/04/15 01:51:22;;;;;;;0.20;0.20;;;-0.50;99.90;;;;;;4986563;28;20159;-67
2021/04/15 01:53:59;;;;;;;0.15;0.15;;;-0.50;99.90;;;;;;4987070;28;20234;-67
2021/04/15 01:56:43;;;;;;;0.20;0.20;;;-0.50;99.90;;;;;;4986594;28;20156;-68
2021/04/15 01:59:12;;;;;;;0.10;0.10;;;-0.30;99.90;;;;;;4987164;28;20267;-67
2021/04/15 02:01:44;;;;;;;0.10;0.10;;;-0.20;99.90;;;;;;4987185;28;20183;-67
2021/04/15 02:04:15;;;;;;;0.20;0.20;;;-0.20;99.90;;;;;;4987389;28;20219;-67
2021/04/15 02:06:50;;;;;;;0.50;0.50;;;-0.20;99.90;;;;;;4991213;28;20183;-67
2021/04/15 02:09:18;;;;;;;0.40;0.40;;;-0.30;99.90;;;;;;4989326;28;20246;-67
2021/04/15 02:12:04;;;;;;;0.20;0.20;;;-0.30;99.90;;;;;;4991602;28;20235;-67
2021/04/15 02:14:35;;;;;;;0.10;0.10;;;-0.20;99.90;;;;;;4990833;28;20206;-67
2021/04/15 02:17:06;;;;;;;0.20;0.20;;;-0.20;99.90;;;;;;4990816;28;20163;-67
2021/04/15 02:19:41;;;;;;;0.20;0.20;;;-0.20;99.90;;;;;;4991362;28;20226;-67
2021/04/15 02:22:40;;;;;;;0.10;0.10;;;-0.10;99.90;;;;;;4989953;28;20186;-67
2021/04/15 02:25:24;;;;;;;0.10;0.10;;;-0.20;99.90;;;;;;4990771;28;20195;-67
2021/04/15 02:28:07;;;;;;;0.20;0.20;;;-0.20;99.90;;;;;;4990415;28;20194;-67
2021/04/15 02:30:47;;;;;;;0.10;0.10;;;-0.20;99.90;;;;;;4990314;28;20201;-67
2021/04/15 02:33:27;;;;;;;0.57;0.57;;;-0.20;99.90;;;;;;4990736;28;20206;-67
2021/04/15 02:35:58;;;;;;;0.10;0.10;;;-0.20;99.90;;;;;;4988919;28;20317;-67
2021/04/15 02:38:30;;;;;;;0.10;0.10;;;-0.20;99.90;;;;;;4990582;28;20166;-67
2021/04/15 02:41:00;;;;;;;0.20;0.20;;;-0.40;99.90;;;;;;4990737;28;20151;-69
2021/04/15 02:43:37;;;;;;;0.20;0.20;;;-0.40;99.90;;;;;;4990883;28;20274;-68
2021/04/15 02:46:15;;;;;;;0.20;0.20;;;-0.50;99.90;;;;;;4990673;28;20571;-67
2021/04/15 02:48:43;;;;;;;0.10;0.10;;;-0.50;99.90;;;;;;4990926;28;20186;-68
2021/04/15 02:51:14;;;;;;;0.30;0.30;;;-0.70;99.90;;;;;;4990834;28;20166;-67
2021/04/15 02:53:46;;;;;;;0.57;0.57;;;-0.70;99.90;;;;;;4990776;28;20340;-67
2021/04/15 02:56:34;;;;;;;0.60;0.60;;;-0.70;99.90;;;;;;4990687;28;20159;-68
2021/04/15 02:59:28;;;;;;;0.38;0.38;;;-0.80;99.90;;;;;;4989332;28;20343;-67
2021/04/15 03:02:01;;;;;;;0.25;0.25;;;-0.80;99.90;;;;;;4990851;28;20175;-68
2021/04/15 03:04:28;;;;;;;0.10;0.10;;;-1.00;99.90;;;;;;4990767;28;20206;-69
2021/04/15 03:06:58;;;;;;;1.48;1.38;;;-1.10;99.90;;;;;;4990508;28;20251;-67
2021/04/15 03:09:25;;;;;;;0.10;0.10;;;-1.30;99.90;;;;;;4990407;28;20313;-68
2021/04/15 03:12:19;;;;;;;0.10;0.10;;;-1.40;99.90;;;;;;4990534;28;20175;-67
2021/04/15 03:14:57;;;;;;;0.43;0.43;;;-1.40;99.90;;;;;;4988754;28;20210;-68
2021/04/15 03:17:26;;;;;;;0.10;0.10;;;-1.50;99.90;;;;;;4990402;28;20243;-67
2021/04/15 03:19:57;;;;;;;0.10;0.10;;;-1.40;99.90;;;;;;4990044;28;20733;-68
2021/04/15 03:22:48;;;;;;;0.10;0.10;;;-1.40;99.90;;;;;;4988836;28;20199;-68
2021/04/15 03:25:15;;;;;;;0.10;0.10;;;-1.30;99.90;;;;;;4990145;28;20199;-68
2021/04/15 03:28:18;;;;;;;0.20;0.20;;;-1.40;99.90;;;;;;4988945;28;20217;-67
2021/04/15 03:31:23;;;;;;;0.10;0.10;;;-1.40;99.90;;;;;;4981859;28;20214;-67
2021/04/15 03:34:02;;;;;;;0.30;0.30;;;-1.40;99.90;;;;;;4968466;29;20650;-67
2021/04/15 03:36:34;;;;;;;0.77;0.77;;;-1.40;99.90;;;;;;4968651;29;20572;-67
2021/04/15 03:39:02;;;;;;;0.10;0.10;;;-1.40;99.90;;;;;;4968384;29;20175;-68
2021/04/15 03:41:41;;;;;;;0.20;0.20;;;-1.20;99.90;;;;;;4968595;29;20203;-69
2021/04/15 03:44:16;;;;;;;0.10;0.10;;;-1.20;99.90;;;;;;4968155;29;20255;-67
2021/04/15 03:46:57;;;;;;;0.32;0.32;;;-1.10;99.90;;;;;;4968339;29;20195;-68
2021/04/15 03:49:36;;;;;;;0.10;0.10;;;-1.00;99.90;;;;;;4967995;29;20246;-68
2021/04/15 03:52:07;;;;;;;0.10;0.10;;;-1.00;99.90;;;;;;4968328;29;20244;-66
2021/04/15 03:54:40;;;;;;;0.10;0.10;;;-1.00;99.90;;;;;;4967969;29;20222;-68
2021/04/15 03:57:11;;;;;;;0.10;0.10;;;-1.00;99.90;;;;;;4968199;29;20232;-68
2021/04/15 04:00:09;;;;;;;0.10;0.10;;;-0.90;99.90;;;;;;4967847;29;20179;-68
2021/04/15 04:02:40;;;;;;;0.10;0.10;;;-1.10;99.90;;;;;;4967833;29;20176;-67
2021/04/15 04:05:13;;;;;;;0.13;0.13;;;-1.10;99.90;;;;;;4967943;29;20238;-66
2021/04/15 04:07:50;;;;;;;0.68;0.68;;;-1.00;99.90;;;;;;4978367;28;20214;-69
2021/04/15 04:10:24;;;;;;;0.70;0.70;;;-1.00;99.90;;;;;;4987758;28;20217;-67
2021/04/15 04:13:15;;;;;;;0.52;0.52;;;-0.90;99.90;;;;;;4987971;28;20171;-66
2021/04/15 04:15:48;;;;;;;0.30;0.30;;;-0.90;99.90;;;;;;4987889;28;20239;-67
2021/04/15 04:18:24;;;;;;;0.20;0.20;;;-1.00;99.90;;;;;;4987720;28;20172;-67
2021/04/15 04:20:58;;;;;;;0.55;0.55;;;-1.00;99.90;;;;;;4987702;28;20231;-67
2021/04/15 04:23:39;;;;;;;0.20;0.20;;;-1.10;99.90;;;;;;4989276;28;20200;-68
2021/04/15 04:26:19;;;;;;;0.20;0.20;;;-1.10;99.90;;;;;;4989352;28;20172;-67
2021/04/15 04:29:24;;;;;;;0.10;0.10;;;-1.00;99.90;;;;;;4988324;28;20306;-68
2021/04/15 04:31:54;;;;;;;0.50;0.50;;;-0.90;99.90;;;;;;4988976;28;20166;-68
2021/04/15 04:34:23;;;;;;;0.10;0.10;;;-1.10;99.90;;;;;;4987627;28;20203;-67
2021/04/15 04:36:52;;;;;;;0.10;0.10;;;-1.20;99.90;;;;;;4987892;28;20167;-67
2021/04/15 04:39:20;;;;;;;0.20;0.20;;;-1.10;99.90;;;;;;4987565;28;20178;-67
2021/04/15 04:42:19;;;;;;;0.10;0.10;;;-1.10;99.90;;;;;;4989141;28;20170;-66
2021/04/15 04:44:56;;;;;;;0.10;0.10;;;-1.00;99.90;;;;;;4988787;28;20203;-68
2021/04/15 04:47:34;;;;;;;0.20;0.20;;;-1.00;99.90;;;;;;4988887;28;20155;-67
2021/04/15 04:50:22;;;;;;;0.30;0.30;;;-0.70;99.90;;;;;;4987555;28;20195;-68
2021/04/15 04:52:57;;;;;;;0.10;0.10;;;-0.50;99.90;;;;;;4987380;28;20167;-68
2021/04/15 04:55:47;;;;;;;0.10;0.10;;;0.20;99.90;;;;;;4988880;28;20159;-68
2021/04/15 04:58:19;;;;;;;0.25;0.25;;;1.20;99.90;;;;;;4988838;28;20174;-68
2021/04/15 05:00:50;;;;;;;0.10;0.10;;;1.90;99.90;;;;;;4988883;28;20179;-68
2021/04/15 05:03:34;;;;;;;0.10;0.10;;;2.50;99.90;;;;;;4988511;28;20195;-68
2021/04/15 05:06:01;;;;;;;0.32;0.32;;;2.40;99.90;;;;;;4988727;28;20457;-67
2021/04/15 05:08:30;;;;;;;0.30;0.30;;;2.90;99.90;;;;;;4988714;28;20159;-67
2021/04/15 05:10:57;;;;;;;0.77;0.77;;;3.50;99.90;;;;;;4986826;28;20167;-67
2021/04/15 05:13:29;;;;;;;0.22;0.22;;;3.80;99.90;;;;;;4988365;28;20665;-67
2021/04/15 05:16:00;;;;;;;0.90;0.90;;;3.90;99.90;;;;;;4988178;28;20277;-70
2021/04/15 05:18:27;;;;;;;0.08;0.08;;;4.20;99.90;;;;;;4988287;28;20187;-68
2021/04/15 05:21:18;;;;;;;0.10;0.10;;;4.30;99.90;;;;;;4987978;28;20227;-69
2021/04/15 05:23:58;;;;;;;0.10;0.10;;;4.60;99.90;;;;;;4985901;28;20211;-68
2021/04/15 05:26:27;;;;;;;0.10;0.10;;;4.90;99.90;;;;;;4988253;28;20585;-67
2021/04/15 05:28:57;;;;;;;0.10;0.10;;;5.00;99.90;;;;;;4988396;28;20259;-67
2021/04/15 05:31:28;;;;;;;0.70;0.70;;;5.30;99.90;;;;;;4988048;28;20148;-67
2021/04/15 05:33:56;;;;;;;0.10;0.10;;;6.00;99.90;;;;;;4988297;28;20202;-67
2021/04/15 05:36:22;;;;;;;0.20;0.20;;;6.20;99.90;;;;;;4988362;28;20261;-68
2021/04/15 05:38:54;;;;;;;0.28;0.28;;;6.00;99.90;;;;;;4988330;28;20202;-69
2021/04/15 05:41:49;;;;;;;1.95;1.63;;;5.90;99.90;;;;;;4990604;28;20176;-67
2021/04/15 05:44:43;;;;;;;0.20;0.20;;;6.20;99.90;;;;;;4991944;28;20610;-67
2021/04/15 05:47:15;;;;;;;0.10;0.10;;;5.70;99.90;;;;;;4989812;28;20250;-67
2021/04/15 05:49:46;;;;;;;0.55;0.55;;;6.50;99.90;;;;;;4990381;28;20199;-67
2021/04/15 05:52:45;;;;;;;0.30;0.30;;;6.10;99.90;;;;;;4991637;28;20156;-67
2021/04/15 05:55:18;;;;;;;0.10;0.10;;;7.10;99.90;;;;;;4991536;28;20222;-67
2021/04/15 05:57:50;;;;;;;1.17;1.17;;;8.40;99.90;;;;;;4991880;28;20156;-67
2021/04/15 06:00:24;;;;;;;0.10;0.10;;;8.60;99.90;;;;;;4991451;28;20199;-67
2021/04/15 06:03:05;;;;;;;0.20;0.20;;;8.60;99.90;;;;;;4991160;28;20175;-68
2021/04/15 06:05:39;;;;;;;0.38;0.38;;;9.60;99.90;;;;;;4991249;28;20167;-67
2021/04/15 06:08:09;;;;;;;0.65;0.65;;;10.50;99.90;;;;;;4990712;28;20167;-66
2021/04/15 06:10:38;;;;;;;1.10;1.00;;;11.00;99.90;;;;;;4990007;28;20198;-67
2021/04/15 06:13:24;;;;;;;0.20;0.20;;;11.10;99.90;;;;;;4991238;28;20152;-68
2021/04/15 06:15:50;;;;;;;0.10;0.10;;;11.40;99.90;;;;;;4991395;28;20190;-69
2021/04/15 06:18:34;;;;;;;0.60;0.60;;;11.80;99.90;;;;;;4991491;28;20171;-68
2021/04/15 06:21:07;;;;;;;0.30;0.30;;;11.70;99.90;;;;;;4991340;28;20599;-67
2021/04/15 06:24:04;;;;;;;0.10;0.10;;;11.70;99.90;;;;;;4989992;28;20212;-67
2021/04/15 06:26:34;;;;;;;0.10;0.10;;;12.80;99.90;;;;;;4990630;28;20277;-66
2021/04/15 06:29:09;;;;;;;0.95;0.65;;;13.60;99.90;;;;;;4989788;28;20199;-66
2021/04/15 06:31:42;;;;;;;0.98;0.80;;;13.20;99.90;;;;;;4991216;28;20163;-68
2021/04/15 06:34:09;;;;;;;0.93;0.32;;;12.90;99.90;;;;;;4991476;28;20187;-67
2021/04/15 06:36:47;;;;;;;0.60;0.55;;;12.40;99.90;;;;;;4991018;28;20162;-67
2021/04/15 06:39:30;;;;;;;2.92;0.77;;;10.70;99.90;;;;;;4989729;28;20182;-69
2021/04/15 06:42:34;;;;;;;0.32;0.20;;;12.10;99.90;;;;;;4989643;28;20205;-68
2021/04/15 06:45:34;;;;;;;0.05;0.05;;;14.10;99.90;;;;;;4989403;28;20628;-67
2021/04/15 06:48:10;;;;;;;5.45;1.42;;;13.70;99.90;;;;;;4986181;28;20199;-66
2021/04/15 06:51:30;;;;;;;1.17;0.63;;;14.40;99.90;;;;;;4988225;28;20199;-66
2021/04/15 06:54:13;;;;;;;1.20;0.57;;;13.80;99.90;;;;;;4968998;29;20200;-66
2021/04/15 06:57:03;;;;;;;12.23;1.60;;;13.60;99.90;;;;;;4953001;29;20235;-68
2021/04/15 06:59:53;;;;;;;0.10;0.10;;;13.50;99.90;;;;;;4969283;29;20203;-68
2021/04/15 07:02:37;;;;;;;1.88;0.63;;;13.10;99.90;;;;;;4953044;29;20188;-68
2021/04/15 07:05:12;;;;;;;0.22;0.22;;;14.30;99.90;;;;;;4968968;29;20203;-67
2021/04/15 07:07:47;;;;;;;1.15;0.57;;;15.50;99.90;;;;;;4968946;29;20160;-67
2021/04/15 07:10:19;;;;;;;0.20;0.20;;;16.20;99.00;;;;;;4968879;29;20244;-67
2021/04/15 07:13:12;;;;;;;0.95;0.95;;;16.70;96.40;;;;;;4968842;29;20172;-67
2021/04/15 07:15:51;;;;;;;0.25;0.25;;;16.90;96.30;;;;;;4968825;29;20183;-67
2021/04/15 07:18:35;;;;;;;0.70;0.70;;;17.50;95.20;;;;;;4968734;29;20354;-66
2021/04/15 07:21:38;;;;;;;0.85;0.73;;;17.50;94.00;;;;;;4965686;29;20199;-66
2021/04/15 07:24:15;;;;;;;0.65;0.55;;;17.20;92.10;;;;;;4951990;29;20203;-67
2021/04/15 07:27:03;;;;;;;1.55;0.68;;;16.40;93.80;;;;;;4968651;29;20225;-68
2021/04/15 07:29:52;;;;;;;0.10;0.10;;;15.30;94.50;;;;;;4967725;28;20215;-67
2021/04/15 07:32:42;;;;;;;0.73;0.50;;;16.20;94.50;;;;;;4972738;28;20214;-67
2021/04/15 07:35:36;;;;;;;0.30;0.30;;;17.60;92.50;;;;;;4988905;28;20194;-68
2021/04/15 07:38:40;;;;;;;3.83;1.35;;;16.10;90.00;;;;;;4988602;28;20270;-67
2021/04/15 07:41:43;;;;;;;0.20;0.15;;;12.70;92.20;;;;;;4985195;28;20186;-67
2021/04/15 07:44:47;;;;;;;0.40;0.40;;;13.40;92.40;;;;;;4989961;28;20273;-67
2021/04/15 07:47:39;;;;;;;0.10;0.10;;;12.80;93.40;;;;;;4971018;28;20229;-67
2021/04/15 07:50:35;;;;;;;2.33;0.88;;;11.30;92.80;;;;;;4987049;28;20207;-66
2021/04/15 07:53:13;;;;;;;0.10;0.10;;;10.80;93.90;;;;;;4987321;28;20167;-66
2021/04/15 07:55:44;;;;;;;0.10;0.10;;;9.60;94.70;;;;;;4987387;28;20223;-67
2021/04/15 07:58:28;;;;;;;0.55;0.55;;;8.90;95.00;;;;;;4987467;28;20198;-67
2021/04/15 08:01:11;;;;;;;0.38;0.38;;;8.70;95.60;;;;;;4971232;28;20189;-68
2021/04/15 08:03:59;;;;;;;1.35;0.60;;;8.00;96.10;;;;;;4987259;28;20199;-70
2021/04/15 08:06:34;;;;;;;0.32;0.32;;;7.40;97.20;;;;;;4987283;28;20167;-67
2021/04/15 08:09:37;;;;;;;0.10;0.10;;;7.80;97.20;;;;;;4987219;28;20286;-67
2021/04/15 08:12:23;;;;;;;0.20;0.20;;;8.90;96.50;;;;;;4986833;28;20226;-66
2021/04/15 08:15:20;;;;;;;1.23;1.13;;;9.50;96.30;;;;;;4986939;28;20219;-67
2021/04/15 08:18:02;;;;;;;0.10;0.10;;;8.30;95.40;;;;;;4987251;28;20179;-67
2021/04/15 08:21:14;;;;;;;0.10;0.10;;;7.40;96.80;;;;;;4987087;28;20285;-66
2021/04/15 08:23:45;;;;;;;0.20;0.20;;;7.10;97.50;;;;;;4951846;28;20223;-66
2021/04/15 08:26:35;;;;;;;0.10;0.10;;;7.40;97.40;;;;;;4979103;28;20195;-68
2021/04/15 08:29:33;;;;;;;0.20;0.20;;;7.20;97.20;;;;;;4981693;28;20199;-68
2021/04/15 08:32:14;;;;;;;0.20;0.20;;;7.50;97.00;;;;;;4974400;28;20243;-68
2021/04/15 08:34:59;;;;;;;0.70;0.70;;;8.10;96.80;;;;;;4963937;28;20194;-67
2021/04/15 08:37:39;;;;;;;0.30;0.30;;;8.40;97.10;;;;;;4963838;28;20203;-67
2021/04/15 08:40:13;;;;;;;0.00;0.00;;;8.00;96.30;;;;;;4962005;29;20179;-67
2021/04/15 08:43:00;;;;;;;0.30;0.30;;;7.90;97.10;;;;;;4964164;28;20207;-67
2021/04/15 08:46:02;;;;;;;0.22;0.22;;;7.70;97.20;;;;;;4963747;28;20168;-67
2021/04/15 08:48:53;;;;;;;0.45;0.45;;;9.00;95.40;;;;;;4929531;28;20196;-67
2021/04/15 08:51:56;;;;;;;2.08;1.30;;;11.50;94.10;;;;;;4955103;28;20191;-68
2021/04/15 08:54:44;;;;;;;0.55;0.55;;;11.30;93.00;;;;;;4963730;29;20219;-68
2021/04/15 08:57:27;;;;;;;0.10;0.10;;;10.80;93.30;;;;;;4963906;28;20175;-68
2021/04/15 08:59:55;;;;;;;0.20;0.20;;;10.60;94.60;;;;;;4963317;28;20216;-67
2021/04/15 09:02:44;;;;;;;12.68;0.93;;;9.90;94.40;;;;;;4965747;28;20199;-68
2021/04/15 09:05:16;;;;;;;0.15;0.15;;;9.50;94.40;;;;;;4969305;28;20239;-68
2021/04/15 09:07:51;;;;;;;0.63;0.45;;;9.60;94.90;;;;;;4969558;28;20164;-69
2021/04/15 09:10:35;;;;;;;0.40;0.40;;;9.80;94.70;;;;;;4969194;28;20183;-67
2021/04/15 09:13:23;;;;;;;0.00;0.00;;;9.70;95.50;;;;;;4969104;28;20203;-67
2021/04/15 09:15:55;;;;;;;0.20;0.20;;;9.70;94.90;;;;;;4973170;28;20163;-67
2021/04/15 09:18:30;;;;;;;0.52;0.35;;;9.10;94.90;;;;;;5004055;28;20176;-68
2021/04/15 09:21:18;;;;;;;0.15;0.15;;;9.00;95.50;;;;;;4973104;28;20318;-68
2021/04/15 09:24:02;;;;;;;0.10;0.10;;;9.20;96.20;;;;;;5004124;28;20204;-68
2021/04/15 09:26:46;;;;;;;0.20;0.20;;;10.40;94.10;;;;;;5004207;28;20171;-67
2021/04/15 09:29:34;;;;;;;0.65;0.50;;;10.70;94.00;;;;;;4972954;29;20203;-68
2021/04/15 09:32:12;;;;;;;0.10;0.10;;;12.20;92.50;;;;;;4972910;28;20202;-68
2021/04/15 09:35:17;;;;;;;0.10;0.10;;;14.30;93.60;;;;;;4973126;28;20168;-66
2021/04/15 09:37:43;;;;;;;0.10;0.10;;;15.20;88.80;;;;;;4972926;28;20597;-68
2021/04/15 09:40:21;;;;;;;0.30;0.30;;;13.50;89.30;;;;;;5003213;28;20179;-68
2021/04/15 09:43:04;;;;;;;0.47;0.32;;;12.00;91.20;;;;;;4972976;28;20159;-69
2021/04/15 09:45:51;;;;;;;0.10;0.10;;;13.40;90.10;;;;;;4972075;28;20678;-68
2021/04/15 09:48:36;;;;;;;0.73;0.35;;;13.00;91.40;;;;;;4971025;29;20206;-66
2021/04/15 09:51:12;;;;;;;0.10;0.10;;;13.80;88.70;;;;;;4982774;28;20202;-68
2021/04/15 09:53:56;;;;;;;0.30;0.30;;;12.20;90.60;;;;;;4992071;28;20167;-68
2021/04/15 09:56:39;;;;;;;0.30;0.30;;;11.90;90.80;;;;;;4991868;28;20167;-68
2021/04/15 09:59:30;;;;;;;0.10;0.10;;;11.30;91.10;;;;;;4990450;28;20202;-66
2021/04/15 10:02:21;;;;;;;0.10;0.10;;;11.40;91.50;;;;;;4992129;28;20163;-67
2021/04/15 10:04:50;;;;;;;0.10;0.10;;;11.50;91.50;;;;;;4991996;28;20174;-67
2021/04/15 10:07:24;;;;;;;0.20;0.20;;;10.90;91.50;;;;;;4991796;28;20264;-68
2021/04/15 10:10:11;;;;;;;0.40;0.40;;;11.10;92.40;;;;;;4991797;28;20297;-68
2021/04/15 10:13:15;;;;;;;0.30;0.30;;;11.20;92.10;;;;;;4990439;28;20171;-68
2021/04/15 10:16:07;;;;;;;0.15;0.15;;;11.90;91.60;;;;;;4991567;28;20163;-68
2021/04/15 10:18:51;;;;;;;0.10;0.10;;;12.40;91.80;;;;;;4991491;28;20203;-68
2021/04/15 10:21:52;;;;;;;0.10;0.10;;;13.60;92.60;;;;;;4991692;28;20175;-67
2021/04/15 10:24:34;;;;;;;0.75;0.65;;;14.30;88.60;;;;;;4990111;28;20175;-67
2021/04/15 10:27:44;;;;;;;0.10;0.10;;;14.90;87.50;;;;;;4989421;28;20654;-68
2021/04/15 10:30:39;;;;;;;0.20;0.20;;;16.90;82.20;;;;;;4991589;28;20191;-68
2021/04/15 10:33:23;;;;;;;0.20;0.20;;;14.60;82.90;;;;;;4987574;28;20218;-69
2021/04/15 10:36:10;;;;;;;0.28;0.28;;;11.90;88.40;;;;;;4991243;28;20230;-66
2021/04/15 10:38:47;;;;;;;0.30;0.30;;;11.10;89.50;;;;;;4989800;28;20191;-67
2021/04/15 10:41:37;;;;;;;0.00;0.00;;;11.00;90.60;;;;;;4991231;28;20167;-67
2021/04/15 10:44:28;;;;;;;0.10;0.10;;;12.90;84.70;;;;;;4991513;28;20183;-67
2021/04/15 10:47:14;;;;;;;0.10;0.10;;;12.80;88.20;;;;;;4991138;28;20160;-67
2021/04/15 10:49:58;;;;;;;0.20;0.20;;;12.30;87.50;;;;;;4990005;28;20677;-67
2021/04/15 10:53:02;;;;;;;0.10;0.10;;;11.50;87.20;;;;;;4970425;29;20195;-67
2021/04/15 10:55:33;;;;;;;0.75;0.40;;;11.10;90.60;;;;;;4971695;28;20152;-67
2021/04/15 10:58:33;;;;;;;0.35;0.30;;;10.00;90.80;;;;;;4986185;28;20195;-67
2021/04/15 11:01:24;;;;;;;0.30;0.30;;;9.40;92.00;;;;;;4990903;28;20183;-67
2021/04/15 11:03:55;;;;;;;0.10;0.10;;;9.50;92.60;;;;;;4989836;28;20171;-68
2021/04/15 11:06:39;;;;;;;0.20;0.20;;;9.10;92.00;;;;;;4989503;28;20266;-67
2021/04/15 11:09:31;;;;;;;0.10;0.10;;;9.30;93.20;;;;;;4990636;28;20219;-67
2021/04/15 11:12:05;;;;;;;0.40;0.40;;;9.60;92.60;;;;;;4990727;28;20521;-66
2021/04/15 11:14:37;;;;;;;0.10;0.10;;;9.50;93.00;;;;;;4990569;28;20166;-67
2021/04/15 11:17:22;;;;;;;0.20;0.20;;;9.50;92.20;;;;;;4989285;28;20213;-67
2021/04/15 11:19:50;;;;;;;0.20;0.20;;;10.50;91.60;;;;;;4990319;28;20225;-68
2021/04/15 11:22:27;;;;;;;0.30;0.30;;;12.10;87.10;;;;;;4990410;28;20223;-67
2021/04/15 11:25:12;;;;;;;0.52;0.32;;;12.90;85.10;;;;;;4989090;28;20171;-68
2021/04/15 11:27:38;;;;;;;0.17;0.17;;;12.90;86.50;;;;;;4988485;28;20203;-67
2021/04/15 11:30:05;;;;;;;6.13;1.02;;;12.60;88.90;;;;;;4988492;28;20238;-66
2021/04/15 11:32:43;;;;;;;0.10;0.10;;;13.70;85.10;;;;;;4985637;28;20262;-66
2021/04/15 11:35:11;;;;;;;0.10;0.10;;;12.50;87.20;;;;;;4982535;28;20183;-66
2021/04/15 11:37:40;;;;;;;0.30;0.30;;;11.00;90.00;;;;;;4965651;28;20200;-67
2021/04/15 11:40:22;;;;;;;0.10;0.10;;;10.60;91.90;;;;;;4965464;28;20176;-66
2021/04/15 11:42:49;;;;;;;0.10;0.10;;;9.80;94.50;;;;;;4963020;29;20172;-67
2021/04/15 11:45:28;;;;;;;0.10;0.10;;;9.40;95.60;;;;;;4965433;28;20167;-67
2021/04/15 11:48:16;;;;;;;0.10;0.10;;;9.20;95.80;;;;;;4963515;28;20385;-67
2021/04/15 11:50:42;;;;;;;0.20;0.20;;;8.90;96.20;;;;;;4971139;28;20226;-67
2021/04/15 11:53:40;;;;;;;0.15;0.15;;;8.80;95.80;;;;;;4984372;28;20175;-66
2021/04/15 11:56:23;;;;;;;0.20;0.20;;;8.80;95.40;;;;;;4984645;28;20198;-67
2021/04/15 11:58:53;;;;;;;0.20;0.20;;;9.10;95.60;;;;;;4979863;28;20200;-66
2021/04/15 12:01:31;;;;;;;0.32;0.32;;;9.60;95.40;;;;;;4965103;28;20657;-68
2021/04/15 12:03:59;;;;;;;0.80;0.47;;;10.80;93.70;;;;;;4962894;28;20184;-66
2021/04/15 12:06:38;;;;;;;0.20;0.20;;;11.70;92.70;;;;;;4963002;28;20172;-67
2021/04/15 12:09:06;;;;;;;2.65;1.10;;;11.30;91.90;;;;;;4964931;28;20210;-67
2021/04/15 12:11:36;;;;;;;0.20;0.20;;;11.80;91.40;;;;;;4962999;29;20244;-67
2021/04/15 12:14:02;;;;;;;0.20;0.20;;;12.00;90.00;;;;;;4964722;28;20603;-67
2021/04/15 12:16:52;;;;;;;0.40;0.40;;;11.90;92.20;;;;;;4965075;28;20178;-68
2021/04/15 12:19:33;;;;;;;0.45;0.45;;;12.50;92.30;;;;;;4963628;29;20324;-66
2021/04/15 12:22:10;;;;;;;0.22;0.22;;;11.40;91.80;;;;;;4964871;28;20182;-67
2021/04/15 12:24:45;;;;;;;0.28;0.28;;;10.50;92.20;;;;;;4962991;29;20175;-69
2021/04/15 12:27:22;;;;;;;0.10;0.10;;;10.30;93.50;;;;;;4964707;28;20164;-68
2021/04/15 12:30:12;;;;;;;1.02;0.30;;;10.60;92.50;;;;;;4963547;29;20200;-68
2021/04/15 12:32:58;;;;;;;0.20;0.20;;;10.90;92.90;;;;;;4955241;28;20562;-67
2021/04/15 12:35:46;;;;;;;0.20;0.20;;;10.70;92.10;;;;;;4964107;28;20184;-67
2021/04/15 12:38:45;;;;;;;0.20;0.20;;;10.70;92.60;;;;;;4964598;28;20196;-68
2021/04/15 12:41:13;;;;;;;0.10;0.10;;;10.30;92.90;;;;;;4964767;28;20239;-68
2021/04/15 12:44:00;;;;;;;0.30;0.30;;;10.40;92.00;;;;;;4964588;28;20184;-68
2021/04/15 12:46:28;;;;;;;0.13;0.13;;;10.40;92.30;;;;;;4963595;29;20191;-67
2021/04/15 12:48:59;;;;;;;0.20;0.20;;;10.60;92.40;;;;;;4961752;28;20238;-66
2021/04/15 12:51:29;;;;;;;0.10;0.10;;;10.60;91.70;;;;;;4975482;28;20214;-66
2021/04/15 12:53:57;;;;;;;0.10;0.10;;;10.90;93.80;;;;;;4982270;28;20168;-68
2021/04/15 12:56:35;;;;;;;0.10;0.10;;;10.90;90.50;;;;;;4982758;28;20183;-67
2021/04/15 12:59:02;;;;;;;0.10;0.10;;;11.20;91.90;;;;;;4983396;28;20393;-67
2021/04/15 13:01:33;;;;;;;0.20;0.20;;;11.70;91.50;;;;;;4983527;28;20179;-66
2021/04/15 13:04:20;;;;;;;0.50;0.50;;;11.80;92.20;;;;;;4983318;28;20210;-68
2021/04/15 13:07:01;;;;;;;0.17;0.17;;;11.90;93.30;;;;;;4982430;28;20159;-68
2021/04/15 13:09:35;;;;;;;0.10;0.10;;;12.00;92.10;;;;;;4965640;28;20207;-67
2021/04/15 13:12:20;;;;;;;0.10;0.10;;;11.60;91.80;;;;;;4972723;28;20297;-67
2021/04/15 13:14:59;;;;;;;0.55;0.55;;;11.30;92.80;;;;;;4979665;28;20735;-69
2021/04/15 13:17:36;;;;;;;0.80;0.47;;;10.50;90.70;;;;;;4981760;28;20210;-69
2021/04/15 13:20:21;;;;;;;1.10;1.00;;;9.60;90.80;;;;;;4978744;28;20258;-67
2021/04/15 13:23:11;;;;;;;0.22;0.22;;;9.50;91.30;;;;;;4982128;28;20167;-68
2021/04/15 13:25:50;;;;;;;0.30;0.30;;;9.80;93.70;;;;;;4981526;28;20186;-68
2021/04/15 13:28:18;;;;;;;0.08;0.08;;;10.20;91.40;;;;;;4982157;28;20353;-67
2021/04/15 13:30:43;;;;;;;0.10;0.10;;;10.20;92.10;;;;;;4983237;28;20183;-67
2021/04/15 13:33:12;;;;;;;0.10;0.10;;;10.80;91.80;;;;;;4981302;28;20182;-68
2021/04/15 13:35:57;;;;;;;0.52;0.52;;;11.20;92.00;;;;;;4983118;28;20162;-67
2021/04/15 13:38:26;;;;;;;0.15;0.15;;;10.90;91.80;;;;;;4982396;28;20580;-67
2021/04/15 13:40:59;;;;;;;0.10;0.10;;;10.30;90.60;;;;;;4983328;28;20182;-68
2021/04/15 13:43:47;;;;;;;0.22;0.22;;;9.80;91.30;;;;;;4986503;28;20210;-66
2021/04/15 13:46:25;;;;;;;0.17;0.17;;;9.60;91.50;;;;;;4981666;28;20202;-67
2021/04/15 13:49:00;;;;;;;0.10;0.10;;;9.30;91.90;;;;;;4988515;28;20167;-67
2021/04/15 13:51:34;;;;;;;0.10;0.10;;;9.40;91.40;;;;;;4988377;28;20155;-67
2021/04/15 13:54:23;;;;;;;0.10;0.10;;;9.60;92.00;;;;;;4988231;28;20178;-68